createdAt,value
2022-10-26T00:01:13.349Z,1.92
2022-10-26T00:03:42.726Z,1.83
2022-10-26T00:06:13.324Z,1.85
2022-10-26T00:08:40.672Z,2.15
2022-10-26T00:11:08.379Z,2.00
2022-10-26T00:13:36.412Z,2.40
2022-10-26T00:16:12.729Z,1.92
2022-10-26T00:18:40.713Z,2.00
2022-10-26T00:21:09.545Z,2.47
2022-10-26T00:23:36.949Z,2.05
2022-10-26T00:26:05.036Z,2.50
2022-10-26T00:28:32.561Z,2.33
2022-10-26T00:31:05.458Z,2.40
2022-10-26T00:33:32.995Z,2.28
2022-10-26T00:36:00.230Z,2.72
2022-10-26T00:38:27.695Z,2.55
2022-10-26T00:40:55.051Z,2.17
2022-10-26T00:43:22.289Z,2.40
2022-10-26T00:45:51.940Z,2.60
2022-10-26T00:48:26.696Z,2.67
2022-10-26T00:50:56.508Z,2.42
2022-10-26T00:53:23.838Z,2.22
2022-10-26T00:55:53.916Z,2.30
2022-10-26T00:58:23.011Z,2.50
2022-10-26T01:00:51.504Z,2.17
2022-10-26T01:03:19.681Z,2.47
2022-10-26T01:05:49.515Z,2.72
2022-10-26T01:08:17.890Z,2.28
2022-10-26T01:10:45.448Z,2.90
2022-10-26T01:13:14.260Z,2.30
2022-10-26T01:16:06.121Z,2.58
2022-10-26T01:18:38.852Z,2.40
2022-10-26T01:21:32.037Z,2.50
2022-10-26T01:24:14.043Z,2.72
2022-10-26T01:27:05.386Z,2.60
2022-10-26T01:30:13.874Z,2.65
2022-10-26T01:33:05.237Z,2.75
2022-10-26T01:35:41.887Z,2.78
2022-10-26T01:38:22.604Z,2.70
2022-10-26T01:41:05.065Z,2.92
2022-10-26T01:43:36.716Z,3.03
2022-10-26T01:46:10.195Z,2.95
2022-10-26T01:48:40.372Z,2.70
2022-10-26T01:51:09.567Z,2.88
2022-10-26T01:53:41.687Z,2.95
2022-10-26T01:56:23.630Z,3.00
2022-10-26T01:59:08.698Z,3.00
2022-10-26T02:01:39.115Z,2.97
2022-10-26T02:07:28.237Z,3.10
2022-10-26T02:10:30.306Z,3.15
2022-10-26T02:13:06.456Z,3.20
2022-10-26T02:15:54.892Z,3.05
2022-10-26T02:18:38.202Z,3.00
2022-10-26T02:21:10.703Z,3.10
2022-10-26T02:23:41.323Z,2.90
2022-10-26T02:26:12.803Z,3.28
2022-10-26T02:28:44.936Z,2.90
2022-10-26T02:31:14.923Z,2.78
2022-10-26T02:33:46.754Z,2.88
2022-10-26T02:36:18.158Z,2.70
2022-10-26T02:38:48.101Z,2.70
2022-10-26T02:41:17.398Z,2.90
2022-10-26T02:43:54.415Z,2.88
2022-10-26T02:46:26.058Z,2.80
2022-10-26T02:48:54.748Z,2.80
2022-10-26T02:51:53.040Z,2.97
2022-10-26T02:54:51.030Z,3.40
2022-10-26T02:57:40.592Z,2.88
2022-10-26T03:02:48.402Z,2.90
2022-10-26T03:05:20.402Z,2.80
2022-10-26T03:07:47.690Z,2.80
2022-10-26T03:10:15.033Z,2.88
2022-10-26T03:12:42.307Z,2.60
2022-10-26T03:15:09.878Z,2.60
2022-10-26T03:17:37.131Z,2.60
2022-10-26T03:20:05.380Z,2.95
2022-10-26T03:22:32.744Z,2.90
2022-10-26T03:25:00.037Z,2.72
2022-10-26T03:27:27.362Z,2.47
2022-10-26T03:29:54.670Z,2.70
2022-10-26T03:32:21.918Z,2.35
2022-10-26T03:34:49.158Z,2.60
2022-10-26T03:37:16.391Z,2.55
2022-10-26T03:39:43.616Z,2.90
2022-10-26T03:42:10.797Z,2.70
2022-10-26T03:44:38.063Z,2.05
2022-10-26T03:47:05.312Z,2.67
2022-10-26T03:49:32.548Z,2.42
2022-10-26T03:51:59.770Z,2.60
2022-10-26T03:54:27.077Z,2.28
2022-10-26T03:56:55.273Z,2.55
2022-10-26T03:59:22.743Z,2.47
2022-10-26T04:01:52.756Z,2.50
2022-10-26T04:04:22.799Z,2.20
2022-10-26T04:06:50.049Z,2.30
2022-10-26T04:09:17.252Z,2.25
2022-10-26T04:11:44.494Z,2.00
2022-10-26T04:14:11.687Z,2.40
2022-10-26T04:16:38.942Z,1.95
2022-10-26T04:19:06.280Z,2.13
2022-10-26T04:21:33.507Z,2.10
2022-10-26T04:24:00.930Z,1.80
2022-10-26T04:26:28.365Z,2.05
2022-10-26T04:28:55.602Z,2.20
2022-10-26T04:31:23.043Z,1.90
2022-10-26T04:33:50.307Z,2.10
2022-10-26T04:36:17.592Z,1.80
2022-10-26T04:38:44.865Z,1.90
2022-10-26T04:41:12.092Z,2.08
2022-10-26T04:43:39.347Z,1.83
2022-10-26T04:46:06.683Z,1.88
2022-10-26T04:48:33.903Z,2.10
2022-10-26T04:51:01.709Z,1.75
2022-10-26T04:53:29.183Z,1.60
2022-10-26T04:56:00.878Z,1.77
2022-10-26T04:58:30.988Z,1.77
2022-10-26T05:00:58.378Z,1.73
2022-10-26T05:03:25.638Z,1.88
2022-10-26T05:05:53.047Z,1.80
2022-10-26T05:08:20.241Z,1.67
2022-10-26T05:10:50.917Z,1.88
2022-10-26T05:13:18.407Z,1.75
2022-10-26T05:15:45.692Z,1.85
2022-10-26T05:18:12.923Z,1.83
2022-10-26T05:20:40.378Z,1.60
2022-10-26T05:23:10.506Z,1.88
2022-10-26T05:25:38.616Z,1.83
2022-10-26T05:28:09.566Z,1.92
2022-10-26T05:30:37.692Z,1.60
2022-10-26T05:33:05.872Z,1.58
2022-10-26T05:35:33.538Z,1.52
2022-10-26T05:38:06.464Z,1.70
2022-10-26T05:40:33.661Z,1.80
2022-10-26T05:43:04.851Z,1.90
2022-10-26T05:45:32.166Z,2.03
2022-10-26T05:48:02.532Z,1.80
2022-10-26T05:50:30.418Z,1.83
2022-10-26T05:52:57.631Z,1.65
2022-10-26T05:55:25.307Z,1.40
2022-10-26T05:57:52.984Z,1.60
2022-10-26T06:00:23.812Z,1.90
2022-10-26T06:03:09.898Z,1.70
2022-10-26T06:05:51.339Z,1.85
2022-10-26T06:08:19.388Z,1.80
2022-10-26T06:10:47.284Z,1.70
2022-10-26T06:13:14.845Z,1.80
2022-10-26T06:15:57.829Z,1.60
2022-10-26T06:18:30.792Z,1.70
2022-10-26T06:21:06.860Z,1.70
2022-10-26T06:24:04.477Z,1.85
2022-10-26T06:26:53.754Z,2.08
2022-10-26T06:29:30.027Z,1.75
2022-10-26T06:31:57.263Z,1.70
2022-10-26T06:34:29.360Z,1.58
2022-10-26T06:36:59.392Z,1.88
2022-10-26T06:39:29.611Z,1.50
2022-10-26T06:41:58.401Z,1.98
2022-10-26T06:44:26.084Z,1.90
2022-10-26T06:47:51.966Z,1.48
2022-10-26T06:50:34.493Z,2.00
2022-10-26T06:53:26.371Z,1.60
2022-10-26T06:55:55.107Z,1.90
2022-10-26T06:58:27.521Z,2.15
2022-10-26T07:00:56.317Z,2.00
2022-10-26T07:03:23.790Z,1.80
2022-10-26T07:05:51.248Z,2.10
2022-10-26T07:08:18.791Z,1.90
2022-10-26T07:10:47.518Z,1.92
2022-10-26T07:13:15.000Z,2.25
2022-10-26T07:15:42.975Z,1.90
2022-10-26T07:18:10.308Z,2.10
2022-10-26T07:20:40.351Z,2.20
2022-10-26T07:23:11.010Z,2.17
2022-10-26T07:25:40.338Z,1.88
2022-10-26T07:28:10.367Z,1.80
2022-10-26T07:30:39.527Z,2.40
2022-10-26T07:33:14.701Z,2.00
2022-10-26T07:35:42.117Z,1.90
2022-10-26T07:38:09.671Z,1.80
2022-10-26T07:40:38.084Z,1.95
2022-10-26T07:43:05.395Z,2.08
2022-10-26T07:45:32.591Z,2.00
2022-10-26T07:47:59.876Z,2.08
2022-10-26T07:50:27.546Z,2.13
2022-10-26T07:52:54.879Z,1.88
2022-10-26T07:55:22.119Z,1.92
2022-10-26T07:57:52.580Z,2.10
2022-10-26T08:00:22.400Z,2.28
2022-10-26T08:02:49.751Z,2.78
2022-10-26T08:05:17.742Z,2.00
2022-10-26T08:07:46.118Z,2.13
2022-10-26T08:10:14.856Z,1.88
2022-10-26T08:12:43.649Z,2.10
2022-10-26T08:15:11.048Z,1.90
2022-10-26T08:17:38.428Z,1.90
2022-10-26T08:20:06.148Z,2.13
2022-10-26T08:22:33.422Z,1.77
2022-10-26T08:25:00.629Z,1.95
2022-10-26T08:27:28.500Z,1.85
2022-10-26T08:29:55.735Z,2.20
2022-10-26T08:32:23.042Z,2.10
2022-10-26T08:34:50.338Z,1.55
2022-10-26T08:37:17.558Z,1.50
2022-10-26T08:39:44.816Z,1.90
2022-10-26T08:42:17.069Z,1.85
2022-10-26T08:44:58.451Z,1.85
2022-10-26T08:47:43.108Z,2.03
2022-10-26T08:50:24.183Z,2.17
2022-10-26T08:53:02.272Z,1.50
2022-10-26T08:58:20.509Z,2.00
2022-10-26T09:00:50.618Z,1.75
2022-10-26T09:03:19.357Z,1.83
2022-10-26T09:05:53.809Z,1.80
2022-10-26T09:09:01.902Z,1.40
2022-10-26T09:11:34.893Z,1.75
2022-10-26T09:14:25.618Z,1.50
2022-10-26T09:17:14.791Z,1.80
2022-10-26T09:20:26.665Z,1.92
2022-10-26T09:23:26.278Z,1.80
2022-10-26T09:26:00.520Z,1.60
2022-10-26T09:28:33.016Z,1.52
2022-10-26T09:31:03.192Z,1.40
2022-10-26T09:33:39.197Z,1.70
2022-10-26T09:36:18.383Z,1.30
2022-10-26T09:38:52.120Z,1.45
2022-10-26T09:41:37.074Z,1.80
2022-10-26T09:46:53.894Z,1.48
2022-10-26T09:49:30.316Z,1.60
2022-10-26T09:51:57.833Z,1.48
2022-10-26T09:54:25.309Z,1.48
2022-10-26T09:56:56.778Z,1.30
2022-10-26T09:59:25.423Z,1.40
2022-10-26T10:01:52.932Z,1.50
2022-10-26T10:04:28.224Z,1.27
2022-10-26T10:07:01.453Z,1.42
2022-10-26T10:09:28.659Z,1.40
2022-10-26T10:11:59.267Z,1.60
2022-10-26T10:14:28.685Z,1.58
2022-10-26T10:17:00.009Z,1.67
2022-10-26T10:19:30.022Z,1.45
2022-10-26T10:22:18.743Z,1.40
2022-10-26T10:25:00.487Z,1.58
2022-10-26T10:27:29.623Z,1.27
2022-10-26T10:30:03.065Z,1.13
2022-10-26T10:32:35.764Z,1.35
2022-10-26T10:37:51.738Z,1.42
2022-10-26T10:40:22.183Z,1.15
2022-10-26T10:42:52.064Z,1.33
2022-10-26T10:45:21.349Z,1.20
2022-10-26T10:48:15.133Z,1.58
2022-10-26T10:50:51.743Z,1.20
2022-10-26T10:53:24.459Z,1.10
2022-10-26T10:56:18.597Z,1.17
2022-10-26T10:59:09.659Z,1.00
2022-10-26T11:01:46.080Z,1.00
2022-10-26T11:04:33.250Z,1.33
2022-10-26T11:07:04.834Z,1.48
2022-10-26T11:09:36.436Z,1.20
2022-10-26T11:12:18.193Z,1.20
2022-10-26T11:15:03.040Z,1.30
2022-10-26T11:17:44.952Z,1.38
2022-10-26T11:20:21.306Z,1.05
2022-10-26T11:23:08.640Z,1.00
2022-10-26T11:25:40.948Z,1.27
2022-10-26T11:28:32.799Z,1.10
2022-10-26T11:31:06.903Z,1.10
2022-10-26T11:33:43.262Z,1.08
2022-10-26T11:36:18.459Z,1.02
2022-10-26T11:39:06.520Z,0.90
2022-10-26T11:42:01.751Z,1.20
2022-10-26T11:44:53.801Z,1.02
2022-10-26T11:47:30.516Z,1.20
2022-10-26T11:50:25.483Z,1.00
2022-10-26T11:53:18.819Z,1.00
2022-10-26T11:55:53.337Z,1.00
2022-10-26T12:01:07.823Z,1.20
2022-10-26T12:03:40.371Z,1.10
2022-10-26T12:06:07.724Z,0.88
2022-10-26T12:09:01.838Z,0.93
2022-10-26T12:11:38.987Z,1.08
2022-10-26T12:14:36.369Z,0.80
2022-10-26T12:17:07.884Z,1.05
2022-10-26T12:19:50.480Z,1.15
2022-10-26T12:22:20.366Z,0.88
2022-10-26T12:25:05.550Z,1.23
2022-10-26T12:27:41.703Z,0.90
2022-10-26T12:30:17.984Z,0.98
2022-10-26T12:32:45.183Z,1.00
2022-10-26T12:35:30.908Z,0.93
2022-10-26T12:37:59.207Z,1.00
2022-10-26T12:40:32.667Z,1.20
2022-10-26T12:43:22.911Z,1.00
2022-10-26T12:46:13.386Z,0.80
2022-10-26T12:48:48.609Z,1.15
2022-10-26T12:51:21.897Z,1.40
2022-10-26T12:54:04.126Z,0.90
2022-10-26T12:56:51.089Z,1.00
2022-10-26T12:59:48.450Z,0.90
2022-10-26T13:02:47.802Z,0.80
2022-10-26T13:05:49.522Z,1.02
2022-10-26T13:08:17.233Z,1.20
2022-10-26T13:11:07.067Z,1.23
2022-10-26T13:13:35.981Z,0.90
2022-10-26T13:16:04.015Z,0.88
2022-10-26T13:18:31.529Z,1.20
2022-10-26T13:21:08.397Z,1.08
2022-10-26T13:23:43.051Z,0.82
2022-10-26T13:26:16.481Z,0.90
2022-10-26T13:28:52.077Z,0.90
2022-10-26T13:31:31.532Z,1.02
2022-10-26T13:34:20.177Z,1.15
2022-10-26T13:37:23.406Z,0.95
2022-10-26T13:39:55.772Z,1.13
2022-10-26T13:45:45.902Z,0.98
2022-10-26T13:48:24.462Z,0.93
2022-10-26T13:50:55.186Z,1.20
2022-10-26T13:53:46.775Z,0.95
2022-10-26T13:56:32.749Z,0.95
2022-10-26T13:59:12.408Z,1.00
2022-10-26T14:01:39.940Z,1.05
2022-10-26T14:04:27.938Z,1.20
2022-10-26T14:06:55.479Z,0.88
2022-10-26T14:09:23.219Z,0.88
2022-10-26T14:11:58.237Z,0.90
2022-10-26T14:14:30.938Z,1.05
2022-10-26T14:16:59.477Z,0.88
2022-10-26T14:19:38.096Z,0.98
2022-10-26T14:22:06.379Z,0.63
2022-10-26T14:24:47.383Z,1.02
2022-10-26T14:27:23.258Z,1.02
2022-10-26T14:32:40.146Z,1.00
2022-10-26T14:35:15.538Z,1.10
2022-10-26T14:38:05.885Z,0.90
2022-10-26T14:40:35.620Z,0.90
2022-10-26T14:43:05.125Z,1.00
2022-10-26T14:45:53.822Z,1.25
2022-10-26T14:48:30.365Z,0.95
2022-10-26T14:50:59.250Z,1.00
2022-10-26T14:53:51.072Z,1.10
2022-10-26T14:56:46.271Z,0.98
2022-10-26T15:02:22.003Z,0.98
2022-10-26T15:05:04.441Z,0.85
2022-10-26T15:07:39.756Z,0.88
2022-10-26T15:10:27.045Z,0.80
2022-10-26T15:12:54.369Z,1.02
2022-10-26T15:15:23.686Z,1.20
2022-10-26T15:17:58.124Z,0.80
2022-10-26T15:20:27.779Z,1.00
2022-10-26T15:23:04.519Z,0.90
2022-10-26T15:25:34.198Z,0.63
2022-10-26T15:28:40.553Z,0.80
2022-10-26T15:31:30.706Z,1.00
2022-10-26T15:34:11.828Z,0.80
2022-10-26T15:36:41.503Z,0.90
2022-10-26T15:39:10.206Z,0.80
2022-10-26T15:41:44.725Z,0.82
2022-10-26T15:46:45.884Z,0.82
2022-10-26T15:49:18.798Z,0.93
2022-10-26T15:51:48.132Z,0.70
2022-10-26T15:54:15.734Z,0.70
2022-10-26T15:56:46.268Z,0.90
2022-10-26T15:59:20.542Z,1.00
2022-10-26T16:01:47.942Z,0.80
2022-10-26T16:04:15.278Z,0.90
2022-10-26T16:06:43.186Z,0.73
2022-10-26T16:09:18.019Z,0.82
2022-10-26T16:11:45.619Z,0.95
2022-10-26T16:14:13.066Z,0.90
2022-10-26T16:16:41.303Z,0.80
2022-10-26T16:19:30.484Z,0.80
2022-10-26T16:21:58.530Z,0.98
2022-10-26T16:24:26.523Z,0.63
2022-10-26T16:26:54.048Z,0.93
2022-10-26T16:29:21.347Z,0.90
2022-10-26T16:31:48.934Z,0.98
2022-10-26T16:34:16.386Z,0.85
2022-10-26T16:36:43.649Z,0.70
2022-10-26T16:39:12.680Z,0.70
2022-10-26T16:41:39.897Z,0.75
2022-10-26T16:44:07.134Z,0.90
2022-10-26T16:46:34.529Z,0.88
2022-10-26T16:49:01.805Z,0.77
2022-10-26T16:51:29.605Z,0.85
2022-10-26T16:53:57.773Z,0.80
2022-10-26T16:56:29.990Z,1.05
2022-10-26T16:58:57.705Z,0.90
2022-10-26T17:01:25.236Z,0.60
2022-10-26T17:03:53.038Z,1.00
2022-10-26T17:06:21.077Z,0.80
2022-10-26T17:08:48.590Z,0.77
2022-10-26T17:11:19.597Z,0.90
2022-10-26T17:13:47.672Z,0.88
2022-10-26T17:16:18.047Z,0.90
2022-10-26T17:18:47.136Z,0.80
2022-10-26T17:21:16.420Z,0.90
2022-10-26T17:23:43.753Z,0.88
2022-10-26T17:26:13.666Z,1.15
2022-10-26T17:28:40.968Z,1.20
2022-10-26T17:31:09.575Z,0.90
2022-10-26T17:33:38.522Z,1.38
2022-10-26T17:36:07.259Z,1.00
2022-10-26T17:38:37.187Z,1.00
2022-10-26T17:41:15.818Z,0.90
2022-10-26T17:43:44.657Z,1.40
2022-10-26T17:46:14.798Z,0.90
2022-10-26T17:48:42.139Z,1.10
2022-10-26T17:51:14.246Z,1.20
2022-10-26T17:53:41.857Z,1.10
2022-10-26T17:56:15.498Z,1.40
2022-10-26T17:58:42.882Z,1.03
2022-10-26T18:01:13.106Z,1.23
2022-10-26T18:03:41.680Z,1.20
2022-10-26T18:06:09.529Z,1.15
2022-10-26T18:08:40.736Z,1.00
2022-10-26T18:11:13.251Z,1.23
2022-10-26T18:13:40.803Z,0.90
2022-10-26T18:16:13.159Z,0.98
2022-10-26T18:18:42.126Z,0.85
2022-10-26T18:21:11.366Z,0.98
2022-10-26T18:23:38.863Z,0.80
2022-10-26T18:26:15.156Z,0.90
2022-10-26T18:28:43.012Z,1.02
2022-10-26T18:31:14.269Z,1.60
2022-10-26T18:33:41.735Z,0.90
2022-10-26T18:36:14.539Z,1.45
2022-10-26T18:38:42.410Z,1.23
2022-10-26T18:41:12.415Z,1.55
2022-10-26T18:43:43.903Z,1.40
2022-10-26T18:46:20.732Z,1.15
2022-10-26T18:48:49.309Z,1.40
2022-10-26T18:51:18.553Z,1.23
2022-10-26T18:53:46.603Z,1.20
2022-10-26T18:56:17.205Z,1.00
2022-10-26T18:58:46.837Z,1.20
2022-10-26T19:01:20.321Z,1.25
2022-10-26T19:03:48.420Z,1.13
2022-10-26T19:06:18.181Z,0.98
2022-10-26T19:08:46.223Z,0.90
2022-10-26T19:11:16.333Z,1.02
2022-10-26T19:13:44.162Z,1.10
2022-10-26T19:16:21.681Z,1.02
2022-10-26T19:19:01.234Z,1.17
2022-10-26T19:21:29.744Z,1.10
2022-10-26T19:23:59.549Z,1.10
2022-10-26T19:26:33.362Z,0.93
2022-10-26T19:29:06.106Z,0.90
2022-10-26T19:31:34.374Z,0.80
2022-10-26T19:34:02.406Z,1.00
2022-10-26T19:36:30.164Z,1.08
2022-10-26T19:38:57.905Z,1.17
2022-10-26T19:41:26.729Z,1.00
2022-10-26T19:44:00.669Z,1.17
2022-10-26T19:46:29.718Z,1.23
2022-10-26T19:48:59.434Z,1.02
2022-10-26T19:51:28.860Z,0.95
2022-10-26T19:54:00.627Z,1.10
2022-10-26T19:58:58.467Z,1.27
2022-10-26T20:01:25.823Z,0.88
2022-10-26T20:03:53.348Z,0.90
2022-10-26T20:06:20.760Z,1.10
2022-10-26T20:08:49.960Z,1.13
2022-10-26T20:11:18.955Z,0.85
2022-10-26T20:13:47.820Z,1.02
2022-10-26T20:16:16.921Z,0.93
2022-10-26T20:18:48.037Z,1.05
2022-10-26T20:21:17.968Z,1.00
2022-10-26T20:23:45.870Z,1.23
2022-10-26T20:26:19.713Z,0.90
2022-10-26T20:28:51.429Z,1.20
2022-10-26T20:31:19.462Z,1.10
2022-10-26T20:33:51.542Z,1.20
2022-10-26T20:36:19.074Z,1.10
2022-10-26T20:38:46.701Z,0.90
2022-10-26T20:41:14.205Z,1.40
2022-10-26T20:43:42.210Z,0.93
2022-10-26T20:46:23.586Z,1.10
2022-10-26T20:48:52.130Z,1.25
2022-10-26T20:52:08.635Z,1.00
2022-10-26T20:54:54.172Z,1.30
2022-10-26T20:57:30.316Z,1.48
2022-10-26T21:00:03.911Z,1.38
2022-10-26T21:02:31.695Z,1.10
2022-10-26T21:04:58.957Z,1.00
2022-10-26T21:07:26.286Z,1.27
2022-10-26T21:09:53.649Z,0.90
2022-10-26T21:12:20.927Z,1.38
2022-10-26T21:14:48.237Z,0.90
2022-10-26T21:17:15.595Z,0.95
2022-10-26T21:19:42.881Z,0.90
2022-10-26T21:22:10.117Z,0.90
2022-10-26T21:24:37.362Z,1.20
2022-10-26T21:27:04.583Z,0.98
2022-10-26T21:29:31.799Z,1.02
2022-10-26T21:31:59.114Z,0.90
2022-10-26T21:34:26.311Z,1.20
2022-10-26T21:36:53.588Z,1.02
2022-10-26T21:39:20.851Z,1.13
2022-10-26T21:41:48.049Z,1.00
2022-10-26T21:44:32.875Z,1.00
2022-10-26T21:47:03.159Z,1.00
2022-10-26T21:49:30.489Z,0.90
2022-10-26T21:51:57.781Z,0.95
2022-10-26T21:54:25.007Z,1.10
2022-10-26T21:56:52.457Z,0.90
2022-10-26T21:59:19.783Z,1.17
2022-10-26T22:01:47.199Z,0.95
2022-10-26T22:04:14.501Z,1.00
2022-10-26T22:06:41.875Z,1.00
2022-10-26T22:09:09.074Z,1.00
2022-10-26T22:11:36.336Z,0.98
2022-10-26T22:14:03.635Z,1.02
2022-10-26T22:16:32.755Z,0.95
2022-10-26T22:19:05.389Z,0.90
2022-10-26T22:21:36.366Z,0.90
2022-10-26T22:24:04.288Z,0.90
2022-10-26T22:26:34.797Z,0.95
2022-10-26T22:29:02.314Z,0.90
2022-10-26T22:31:36.921Z,1.05
2022-10-26T22:36:35.487Z,0.80
2022-10-26T22:39:03.209Z,0.90
2022-10-26T22:41:30.515Z,0.80
2022-10-26T22:43:57.801Z,0.85
2022-10-26T22:46:27.865Z,0.95
2022-10-26T22:49:00.302Z,0.70
2022-10-26T22:51:33.005Z,0.90
2022-10-26T22:54:02.044Z,0.95
2022-10-26T22:56:30.680Z,0.93
2022-10-26T22:58:58.256Z,0.90
2022-10-26T23:01:28.336Z,0.98
2022-10-26T23:03:56.229Z,0.80
2022-10-26T23:06:25.557Z,0.70
2022-10-26T23:08:52.859Z,1.10
2022-10-26T23:11:22.397Z,0.88
2022-10-26T23:13:57.030Z,0.90
2022-10-26T23:16:25.259Z,0.95
2022-10-26T23:18:53.459Z,0.98
2022-10-26T23:21:22.482Z,0.90
2022-10-26T23:23:50.035Z,0.80
2022-10-26T23:28:53.240Z,1.10
2022-10-26T23:31:30.713Z,0.90
2022-10-26T23:33:58.432Z,0.90
2022-10-26T23:36:26.045Z,1.00
2022-10-26T23:38:53.310Z,0.90
2022-10-26T23:41:20.522Z,0.90
2022-10-26T23:43:47.810Z,1.00
2022-10-26T23:46:15.151Z,1.08
2022-10-26T23:48:42.429Z,0.73
2022-10-26T23:51:09.713Z,0.90
2022-10-26T23:53:36.976Z,0.90
2022-10-26T23:56:04.448Z,0.80
2022-10-26T23:58:31.667Z,1.02
